createdAt,value
2022-12-03T00:02:45.155Z,2.5
2022-12-03T00:16:50.544Z,2.4
2022-12-03T00:31:01.079Z,2.4
2022-12-03T00:45:12.033Z,2.4
2022-12-03T00:59:29.060Z,2.4
2022-12-03T01:13:35.452Z,2.3
2022-12-03T01:27:45.003Z,2.3
2022-12-03T01:41:53.846Z,2.3
2022-12-03T01:56:03.120Z,2.2
2022-12-03T02:10:14.202Z,2.3
2022-12-03T02:24:22.935Z,2.3
2022-12-03T02:38:33.852Z,2.3
2022-12-03T02:52:38.891Z,2.3
2022-12-03T03:06:51.872Z,2.2
2022-12-03T03:21:08.734Z,2.2
2022-12-03T03:35:19.332Z,2.1
2022-12-03T03:49:32.721Z,2.1
2022-12-03T04:03:45.622Z,2.1
2022-12-03T04:17:51.290Z,2.1
2022-12-03T04:32:00.552Z,2.1
2022-12-03T04:46:14.817Z,2.1
2022-12-03T05:00:22.023Z,2.1
2022-12-03T05:14:31.824Z,2.1
2022-12-03T05:28:41.447Z,2.1
2022-12-03T05:42:53.305Z,2
2022-12-03T05:57:09.590Z,2
2022-12-03T06:11:15.689Z,2
2022-12-03T06:25:32.774Z,2
2022-12-03T06:39:39.064Z,2
2022-12-03T06:53:46.960Z,2
2022-12-03T07:07:59.516Z,2
2022-12-03T07:22:17.857Z,2
2022-12-03T07:36:24.423Z,2.1
2022-12-03T07:50:34.299Z,2.2
2022-12-03T08:04:40.805Z,2.3
2022-12-03T08:18:52.976Z,2.4
2022-12-03T08:33:04.556Z,2.6
2022-12-03T08:47:10.256Z,2.9
2022-12-03T09:01:17.467Z,3.2
2022-12-03T09:15:20.362Z,3.2
2022-12-03T09:29:37.719Z,3.4
2022-12-03T09:44:13.893Z,3.7
2022-12-03T09:57:58.876Z,4
2022-12-03T10:12:05.648Z,4.2
2022-12-03T10:26:20.944Z,4.5
2022-12-03T10:40:29.869Z,5.1
2022-12-03T10:54:37.755Z,4.9
2022-12-03T11:08:50.370Z,5.1
2022-12-03T11:22:54.139Z,4.9
2022-12-03T11:37:03.587Z,4.5
2022-12-03T11:51:18.626Z,4.1
2022-12-03T12:05:21.229Z,4
2022-12-03T12:19:32.168Z,4.1
2022-12-03T12:33:37.810Z,4.3
2022-12-03T12:47:50.137Z,4.2
2022-12-03T13:02:10.208Z,4.3
2022-12-03T13:16:13.252Z,4.3
2022-12-03T13:30:24.651Z,4
2022-12-03T13:44:30.721Z,3.8
2022-12-03T13:58:40.776Z,3.6
2022-12-03T14:12:44.544Z,3.4
2022-12-03T14:26:57.699Z,3.3
2022-12-03T14:41:06.238Z,3.1
2022-12-03T14:55:15.809Z,2.9
2022-12-03T15:09:30.849Z,2.9
2022-12-03T15:23:38.594Z,2.9
2022-12-03T15:37:43.856Z,2.8
2022-12-03T15:51:55.758Z,2.7
2022-12-03T16:06:03.486Z,2.7
2022-12-03T16:20:10.064Z,2.7
2022-12-03T16:34:22.062Z,2.7
2022-12-03T16:48:39.962Z,2.7
2022-12-03T17:02:58.226Z,2.7
2022-12-03T17:17:10.672Z,2.7
2022-12-03T17:31:26.874Z,2.7
2022-12-03T17:45:43.366Z,2.6
2022-12-03T17:59:58.683Z,2.6
2022-12-03T18:14:13.938Z,2.6
2022-12-03T18:28:31.181Z,2.5
2022-12-03T18:42:40.274Z,2.5
2022-12-03T18:56:44.000Z,2.5
2022-12-03T19:10:52.519Z,2.4
2022-12-03T19:24:55.379Z,2.4
2022-12-03T19:39:11.310Z,2.4
2022-12-03T19:53:28.145Z,2.3
2022-12-03T20:07:43.487Z,2.3
2022-12-03T20:21:46.735Z,2.2
2022-12-03T20:35:51.708Z,2.2
2022-12-03T20:50:04.371Z,2.1
2022-12-03T21:04:18.758Z,2.1
2022-12-03T21:18:29.663Z,2.1
2022-12-03T21:32:42.992Z,2
2022-12-03T21:47:08.700Z,2
2022-12-03T22:00:56.387Z,2
2022-12-03T22:15:03.136Z,1.9
2022-12-03T22:29:05.762Z,1.9
2022-12-03T22:43:10.364Z,1.8
2022-12-03T22:57:25.867Z,1.8
2022-12-03T23:11:39.273Z,1.8
2022-12-03T23:25:50.671Z,1.8
2022-12-03T23:40:02.974Z,1.8
2022-12-03T23:54:09.409Z,1.7
